Time;durP1;ratioP1;P1;durP2;ratioP2;P2;SDS_P1;SDS_P2;PMS_P1;PMS_P2;Temp;Humidity;BMP_temperature;BMP_pressure;BME280_temperature;BME280_humidity;BME280_pressure;Samples;Min_cycle;Max_cycle;Signal;HPM_P1;HPM_P2
2024/02/20 00:02:00;;;;;;;;;;;;;;;;;;5051370;28;19967;-82
2024/02/20 00:04:26;;;;;;;;;;;;;;;;;;5050798;28;19920;-81
2024/02/20 00:06:51;;;;;;;;;;;;;;;;;;5048644;28;19917;-82
2024/02/20 00:09:17;;;;;;;;;;;;;;;;;;5046986;28;20008;-82
2024/02/20 00:11:43;;;;;;;;;;;;;;;;;;5058824;28;19921;-82
2024/02/20 00:14:09;;;;;;;;;;;;;;;;;;5049380;28;19913;-81
2024/02/20 00:16:35;;;;;;;;;;;;;;;;;;5051244;28;19931;-82
2024/02/20 00:19:01;;;;;;;;;;;;;;;;;;5047829;28;19951;-82
2024/02/20 00:21:27;;;;;;;;;;;;;;;;;;5048296;28;19940;-81
2024/02/20 00:23:53;;;;;;;;;;;;;;;;;;5051366;28;20394;-82
2024/02/20 00:26:18;;;;;;;;;;;;;;;;;;5053473;28;19966;-82
2024/02/20 00:28:44;;;;;;;;;;;;;;;;;;5047167;28;19927;-81
2024/02/20 00:31:11;;;;;;;;;;;;;;;;;;5047455;28;19928;-82
2024/02/20 00:33:37;;;;;;;;;;;;;;;;;;5047462;28;20007;-82
2024/02/20 00:36:03;;;;;;;;;;;;;;;;;;5056114;28;19995;-82
2024/02/20 00:38:29;;;;;;;;;;;;;;;;;;5045713;28;19920;-82
2024/02/20 00:40:55;;;;;;;;;;;;;;;;;;5047398;28;19913;-81
2024/02/20 00:43:21;;;;;;;;;;;;;;;;;;5046712;28;19924;-83
2024/02/20 00:45:47;;;;;;;;;;;;;;;;;;5048163;28;19956;-82
2024/02/20 00:48:13;;;;;;;;;;;;;;;;;;5045716;28;21437;-82
2024/02/20 00:50:39;;;;;;;;;;;;;;;;;;5052615;28;19912;-83
2024/02/20 00:53:04;;;;;;;;;;;;;;;;;;5051434;28;20241;-82
2024/02/20 00:55:30;;;;;;;;;;;;;;;;;;5048655;28;19925;-82
2024/02/20 00:57:59;;;;;;;;;;;;;;;;;;5049714;28;19965;-82
2024/02/20 01:00:25;;;;;;;;;;;;;;;;;;5049405;28;20007;-82
2024/02/20 01:02:51;;;;;;;;;;;;;;;;;;5050186;28;19995;-82
2024/02/20 01:05:17;;;;;;;;;;;;;;;;;;5053263;28;19959;-81
2024/02/20 01:07:43;;;;;;;;;;;;;;;;;;5047784;28;19920;-82
2024/02/20 01:10:09;;;;;;;;;;;;;;;;;;5051638;28;19917;-82
2024/02/20 01:12:34;;;;;;;;;;;;;;;;;;5043031;28;20087;-82
2024/02/20 01:15:00;;;;;;;;;;;;;;;;;;5059010;28;19921;-81
2024/02/20 01:17:26;;;;;;;;;;;;;;;;;;5048917;28;19917;-82
2024/02/20 01:19:52;;;;;;;;;;;;;;;;;;5051706;28;20034;-82
2024/02/20 01:22:18;;;;;;;;;;;;;;;;;;5051609;28;19948;-82
2024/02/20 01:24:44;;;;;;;;;;;;;;;;;;5052991;28;19916;-82
2024/02/20 01:27:10;;;;;;;;;;;;;;;;;;5055255;28;19954;-82
2024/02/20 01:29:36;;;;;;;;;;;;;;;;;;5055836;28;19963;-82
2024/02/20 01:32:02;;;;;;;;;;;;;;;;;;5051701;28;19920;-82
2024/02/20 01:34:28;;;;;;;;;;;;;;;;;;5054491;28;20096;-82
2024/02/20 01:36:55;;;;;;;;;;;;;;;;;;5052085;28;19920;-82
2024/02/20 01:39:21;;;;;;;;;;;;;;;;;;5064028;28;19923;-82
2024/02/20 01:41:47;;;;;;;;;;;;;;;;;;5054486;28;20354;-82
2024/02/20 01:44:12;;;;;;;;;;;;;;;;;;5063634;28;20268;-82
2024/02/20 01:46:40;;;;;;;;;;;;;;;;;;5049061;28;20299;-82
2024/02/20 01:49:06;;;;;;;;;;;;;;;;;;5050621;28;19913;-83
2024/02/20 01:51:32;;;;;;;;;;;;;;;;;;5049793;28;20384;-82
2024/02/20 01:53:58;;;;;;;;;;;;;;;;;;5051254;28;19992;-82
2024/02/20 01:56:24;;;;;;;;;;;;;;;;;;5050545;28;20337;-83
2024/02/20 01:58:50;;;;;;;;;;;;;;;;;;5054961;28;19937;-82
2024/02/20 02:01:18;;;;;;;;;;;;;;;;;;5060297;28;19913;-83
2024/02/20 02:03:44;;;;;;;;;;;;;;;;;;5050179;28;20429;-83
2024/02/20 02:06:10;;;;;;;;;;;;;;;;;;5053047;28;20054;-82
2024/02/20 02:08:36;;;;;;;;;;;;;;;;;;5054059;28;19912;-82
2024/02/20 02:11:02;;;;;;;;;;;;;;;;;;5052657;28;19923;-82
2024/02/20 02:13:28;;;;;;;;;;;;;;;;;;5059687;28;19919;-83
2024/02/20 02:15:54;;;;;;;;;;;;;;;;;;5063776;28;19927;-82
2024/02/20 02:18:20;;;;;;;;;;;;;;;;;;5051194;28;19919;-82
2024/02/20 02:20:45;;;;;;;;;;;;;;;;;;5050260;28;20431;-83
2024/02/20 02:23:11;;;;;;;;;;;;;;;;;;5050443;28;20338;-82
2024/02/20 02:25:37;;;;;;;;;;;;;;;;;;5050390;28;19913;-82
2024/02/20 02:28:03;;;;;;;;;;;;;;;;;;5052358;28;19920;-82
2024/02/20 02:30:29;;;;;;;;;;;;;;;;;;5045126;28;19939;-82
2024/02/20 02:32:55;;;;;;;;;;;;;;;;;;5044962;28;19921;-82
2024/02/20 02:35:21;;;;;;;;;;;;;;;;;;5049950;28;20354;-82
2024/02/20 02:37:47;;;;;;;;;;;;;;;;;;5049693;28;19925;-82
2024/02/20 02:40:13;;;;;;;;;;;;;;;;;;5049273;28;20195;-82
2024/02/20 02:42:38;;;;;;;;;;;;;;;;;;5048965;28;19920;-83
2024/02/20 02:45:04;;;;;;;;;;;;;;;;;;5050331;28;19913;-82
2024/02/20 02:47:30;;;;;;;;;;;;;;;;;;5062288;28;19951;-82
2024/02/20 02:49:56;;;;;;;;;;;;;;;;;;5048712;28;19924;-82
2024/02/20 02:52:22;;;;;;;;;;;;;;;;;;5047801;28;19920;-82
2024/02/20 02:54:48;;;;;;;;;;;;;;;;;;5049597;28;20035;-82
2024/02/20 02:57:14;;;;;;;;;;;;;;;;;;5050016;28;20367;-82
2024/02/20 02:59:40;;;;;;;;;;;;;;;;;;5047958;28;19921;-82
2024/02/20 03:02:05;;;;;;;;;;;;;;;;;;5049947;28;20046;-82
2024/02/20 03:04:32;;;;;;;;;;;;;;;;;;5048619;28;20283;-82
2024/02/20 03:06:58;;;;;;;;;;;;;;;;;;5058290;28;19935;-82
2024/02/20 03:09:24;;;;;;;;;;;;;;;;;;5049253;28;20494;-81
2024/02/20 03:11:50;;;;;;;;;;;;;;;;;;5050632;28;19995;-81
2024/02/20 03:14:16;;;;;;;;;;;;;;;;;;5048052;28;19913;-81
2024/02/20 03:16:42;;;;;;;;;;;;;;;;;;5052691;28;20402;-82
2024/02/20 03:19:08;;;;;;;;;;;;;;;;;;5048449;28;19914;-82
2024/02/20 03:21:36;;;;;;;;;;;;;;;;;;5049710;28;20001;-82
2024/02/20 03:24:02;;;;;;;;;;;;;;;;;;5048453;28;19912;-82
2024/02/20 03:26:28;;;;;;;;;;;;;;;;;;5049805;28;19920;-83
2024/02/20 03:28:54;;;;;;;;;;;;;;;;;;5048290;28;20545;-83
2024/02/20 03:31:20;;;;;;;;;;;;;;;;;;5048020;28;20035;-83
2024/02/20 03:33:46;;;;;;;;;;;;;;;;;;5051489;28;19961;-83
2024/02/20 03:36:12;;;;;;;;;;;;;;;;;;5048903;28;20488;-82
2024/02/20 03:38:38;;;;;;;;;;;;;;;;;;5032217;28;20299;-82
2024/02/20 03:41:04;;;;;;;;;;;;;;;;;;5052837;28;19913;-82
2024/02/20 03:43:29;;;;;;;;;;;;;;;;;;5047205;28;19917;-83
2024/02/20 03:45:55;;;;;;;;;;;;;;;;;;5048094;28;19916;-82
2024/02/20 03:48:21;;;;;;;;;;;;;;;;;;5054331;28;19913;-82
2024/02/20 03:50:47;;;;;;;;;;;;;;;;;;5044386;28;19913;-82
2024/02/20 03:53:13;;;;;;;;;;;;;;;;;;5047323;28;19920;-82
2024/02/20 03:55:39;;;;;;;;;;;;;;;;;;5048096;28;19916;-83
2024/02/20 03:58:04;;;;;;;;;;;;;;;;;;5047131;28;19917;-82
2024/02/20 04:00:30;;;;;;;;;;;;;;;;;;5056586;28;19920;-82
2024/02/20 04:02:56;;;;;;;;;;;;;;;;;;5050532;28;20843;-83
2024/02/20 04:05:22;;;;;;;;;;;;;;;;;;5048797;28;20003;-82
2024/02/20 04:07:48;;;;;;;;;;;;;;;;;;5048312;28;20058;-83
2024/02/20 04:10:14;;;;;;;;;;;;;;;;;;5050766;28;19913;-82
2024/02/20 04:12:40;;;;;;;;;;;;;;;;;;5047619;28;20003;-82
2024/02/20 04:15:06;;;;;;;;;;;;;;;;;;5053867;28;19921;-82
2024/02/20 04:17:32;;;;;;;;;;;;;;;;;;5051493;28;19913;-81
2024/02/20 04:19:58;;;;;;;;;;;;;;;;;;5048321;28;19916;-82
2024/02/20 04:22:23;;;;;;;;;;;;;;;;;;5048098;28;19920;-82
2024/02/20 04:24:49;;;;;;;;;;;;;;;;;;5047061;28;20000;-82
2024/02/20 04:27:15;;;;;;;;;;;;;;;;;;5048162;28;19975;-82
2024/02/20 04:29:41;;;;;;;;;;;;;;;;;;5047702;28;20264;-82
2024/02/20 04:32:07;;;;;;;;;;;;;;;;;;5049613;28;20011;-82
2024/02/20 04:34:33;;;;;;;;;;;;;;;;;;5046113;28;20337;-83
2024/02/20 04:36:59;;;;;;;;;;;;;;;;;;5047906;28;19917;-83
2024/02/20 04:39:25;;;;;;;;;;;;;;;;;;5048193;28;19912;-82
2024/02/20 04:41:50;;;;;;;;;;;;;;;;;;5046542;28;20363;-82
2024/02/20 04:44:16;;;;;;;;;;;;;;;;;;5049583;28;20383;-81
2024/02/20 04:46:42;;;;;;;;;;;;;;;;;;5047515;28;19913;-81
2024/02/20 04:49:08;;;;;;;;;;;;;;;;;;5041069;28;19913;-82
2024/02/20 04:51:35;;;;;;;;;;;;;;;;;;5047919;28;19913;-82
2024/02/20 04:54:01;;;;;;;;;;;;;;;;;;5048862;28;19952;-82
2024/02/20 04:56:27;;;;;;;;;;;;;;;;;;5048134;28;19959;-82
2024/02/20 04:58:53;;;;;;;;;;;;;;;;;;5046422;28;19917;-82
2024/02/20 05:01:19;;;;;;;;;;;;;;;;;;5049761;28;19913;-82
2024/02/20 05:03:46;;;;;;;;;;;;;;;;;;5045877;28;19943;-82
2024/02/20 05:06:12;;;;;;;;;;;;;;;;;;5046950;28;19959;-82
2024/02/20 05:08:38;;;;;;;;;;;;;;;;;;5048677;28;19920;-82
2024/02/20 05:11:03;;;;;;;;;;;;;;;;;;5047093;28;19967;-83
2024/02/20 05:13:29;;;;;;;;;;;;;;;;;;5047219;28;19913;-83
2024/02/20 05:15:55;;;;;;;;;;;;;;;;;;5045900;28;19928;-81
2024/02/20 05:18:21;;;;;;;;;;;;;;;;;;5049031;28;19917;-81
2024/02/20 05:20:47;;;;;;;;;;;;;;;;;;5046995;28;19913;-82
2024/02/20 05:23:13;;;;;;;;;;;;;;;;;;5047212;28;19913;-82
2024/02/20 05:25:39;;;;;;;;;;;;;;;;;;5048907;28;20397;-82
2024/02/20 05:28:04;;;;;;;;;;;;;;;;;;5045858;28;19921;-82
2024/02/20 05:30:30;;;;;;;;;;;;;;;;;;5048456;28;19920;-82
2024/02/20 05:32:56;;;;;;;;;;;;;;;;;;5047418;28;19948;-81
2024/02/20 05:35:22;;;;;;;;;;;;;;;;;;5045943;28;19923;-81
2024/02/20 05:37:48;;;;;;;;;;;;;;;;;;5048658;28;19951;-82
2024/02/20 05:40:20;;;;;;;;;;;;;;;;;;5045805;28;19917;-82
2024/02/20 05:42:46;;;;;;;;;;;;;;;;;;5047247;28;19915;-81
2024/02/20 05:45:12;;;;;;;;;;;;;;;;;;5044703;28;20299;-82
2024/02/20 05:47:38;;;;;;;;;;;;;;;;;;5050581;28;19920;-81
2024/02/20 05:50:03;;;;;;;;;;;;;;;;;;5049743;28;19951;-82
2024/02/20 05:52:30;;;;;;;;;;;;;;;;;;5034788;28;20012;-81
2024/02/20 05:54:56;;;;;;;;;;;;;;;;;;5054123;28;20328;-81
2024/02/20 05:57:22;;;;;;;;;;;;;;;;;;5051841;28;19959;-81
2024/02/20 05:59:47;;;;;;;;;;;;;;;;;;5049822;28;19913;-81
2024/02/20 06:02:13;;;;;;;;;;;;;;;;;;5052410;28;20007;-81
2024/02/20 06:04:39;;;;;;;;;;;;;;;;;;5055561;28;19931;-83
2024/02/20 06:07:05;;;;;;;;;;;;;;;;;;5053504;28;19913;-82
2024/02/20 06:09:31;;;;;;;;;;;;;;;;;;5053108;28;20019;-83
2024/02/20 06:11:58;;;;;;;;;;;;;;;;;;5051409;28;19924;-83
2024/02/20 06:14:24;;;;;;;;;;;;;;;;;;5045024;28;20359;-82
2024/02/20 06:16:50;;;;;;;;;;;;;;;;;;5050726;28;19917;-82
2024/02/20 06:19:16;;;;;;;;;;;;;;;;;;5048820;28;19924;-82
2024/02/20 06:21:43;;;;;;;;;;;;;;;;;;5055426;28;19965;-82
2024/02/20 06:24:08;;;;;;;;;;;;;;;;;;5048212;28;19913;-83
2024/02/20 06:26:35;;;;;;;;;;;;;;;;;;5050646;28;19920;-82
2024/02/20 06:29:01;;;;;;;;;;;;;;;;;;5050583;28;19973;-81
2024/02/20 06:31:27;;;;;;;;;;;;;;;;;;5051655;28;20031;-87
2024/02/20 06:33:53;;;;;;;;;;;;;;;;;;5048748;28;20059;-81
2024/02/20 06:36:19;;;;;;;;;;;;;;;;;;5048318;28;19917;-83
2024/02/20 06:38:45;;;;;;;;;;;;;;;;;;5046457;28;20433;-82
2024/02/20 06:41:14;;;;;;;;;;;;;;;;;;5056842;28;20256;-81
2024/02/20 06:43:39;;;;;;;;;;;;;;;;;;5069785;28;20311;-82
2024/02/20 06:46:05;;;;;;;;;;;;;;;;;;5069939;28;19951;-82
2024/02/20 06:48:31;;;;;;;;;;;;;;;;;;5070379;28;19912;-83
2024/02/20 06:50:57;;;;;;;;;;;;;;;;;;5069557;28;19912;-82
2024/02/20 06:53:23;;;;;;;;;;;;;;;;;;5049610;28;19920;-82
2024/02/20 06:55:49;;;;;;;;;;;;;;;;;;5049593;28;19912;-81
2024/02/20 06:58:15;;;;;;;;;;;;;;;;;;5049767;28;19913;-82
2024/02/20 07:00:40;;;;;;;;;;;;;;;;;;5049531;28;19917;-82
2024/02/20 07:03:06;;;;;;;;;;;;;;;;;;5049508;28;19910;-81
2024/02/20 07:05:32;;;;;;;;;;;;;;;;;;5049838;28;19909;-82
2024/02/20 07:07:59;;;;;;;;;;;;;;;;;;5049445;28;20410;-83
2024/02/20 07:10:24;;;;;;;;;;;;;;;;;;5049704;28;20423;-82
2024/02/20 07:12:50;;;;;;;;;;;;;;;;;;5049246;28;19959;-83
2024/02/20 07:15:16;;;;;;;;;;;;;;;;;;5049031;28;20345;-83
2024/02/20 07:17:42;;;;;;;;;;;;;;;;;;5050251;28;19923;-83
2024/02/20 07:20:08;;;;;;;;;;;;;;;;;;5061567;28;19916;-84
2024/02/20 07:22:34;;;;;;;;;;;;;;;;;;5047946;28;19913;-83
2024/02/20 07:25:00;;;;;;;;;;;;;;;;;;5068667;28;20500;-83
2024/02/20 07:27:26;;;;;;;;;;;;;;;;;;5069063;28;19921;-83
2024/02/20 07:29:52;;;;;;;;;;;;;;;;;;5061431;28;19917;-83
2024/02/20 07:32:18;;;;;;;;;;;;;;;;;;5047716;28;21962;-82
2024/02/20 07:34:43;;;;;;;;;;;;;;;;;;5048273;28;20386;-82
2024/02/20 07:37:09;;;;;;;;;;;;;;;;;;5049114;28;20394;-82
2024/02/20 07:39:36;;;;;;;;;;;;;;;;;;5048563;28;19917;-82
2024/02/20 07:42:02;;;;;;;;;;;;;;;;;;5048668;28;20002;-82
2024/02/20 07:44:28;;;;;;;;;;;;;;;;;;5048714;28;19952;-81
2024/02/20 07:46:54;;;;;;;;;;;;;;;;;;5046891;28;20395;-82
2024/02/20 07:49:20;;;;;;;;;;;;;;;;;;5036235;28;20368;-82
2024/02/20 07:51:46;;;;;;;;;;;;;;;;;;5048220;28;19912;-81
2024/02/20 07:54:12;;;;;;;;;;;;;;;;;;5048258;28;20015;-82
2024/02/20 07:56:39;;;;;;;;;;;;;;;;;;5048585;28;19916;-83
2024/02/20 07:59:05;;;;;;;;;;;;;;;;;;5047639;28;20296;-83
2024/02/20 08:01:31;;;;;;;;;;;;;;;;;;5048024;28;20370;-83
2024/02/20 08:03:57;;;;;;;;;;;;;;;;;;5047415;28;19917;-82
2024/02/20 08:06:23;;;;;;;;;;;;;;;;;;5048034;28;19912;-87
2024/02/20 08:08:48;;;;;;;;;;;;;;;;;;5047722;28;20494;-81
2024/02/20 08:11:14;;;;;;;;;;;;;;;;;;5047982;28;20272;-82
2024/02/20 08:13:40;;;;;;;;;;;;;;;;;;5048600;28;20179;-83
2024/02/20 08:16:06;;;;;;;;;;;;;;;;;;5047514;28;19917;-83
2024/02/20 08:18:32;;;;;;;;;;;;;;;;;;5048429;28;19916;-85
2024/02/20 08:20:58;;;;;;;;;;;;;;;;;;5048600;28;19917;-84
2024/02/20 08:23:23;;;;;;;;;;;;;;;;;;5048484;28;20385;-84
2024/02/20 08:25:49;;;;;;;;;;;;;;;;;;5047251;28;20287;-84
2024/02/20 08:28:15;;;;;;;;;;;;;;;;;;5048341;28;20330;-84
2024/02/20 08:30:41;;;;;;;;;;;;;;;;;;5047305;28;19917;-84
2024/02/20 08:33:07;;;;;;;;;;;;;;;;;;5048331;28;20403;-86
2024/02/20 08:35:33;;;;;;;;;;;;;;;;;;5050587;28;19924;-89
2024/02/20 08:37:59;;;;;;;;;;;;;;;;;;5048268;28;19939;-84
2024/02/20 08:40:25;;;;;;;;;;;;;;;;;;5049545;28;19909;-85
2024/02/20 08:42:51;;;;;;;;;;;;;;;;;;5049521;28;20127;-86
2024/02/20 08:45:16;;;;;;;;;;;;;;;;;;5048500;28;19908;-86
2024/02/20 08:47:42;;;;;;;;;;;;;;;;;;5029923;28;20298;-86
2024/02/20 08:50:09;;;;;;;;;;;;;;;;;;5047655;28;19924;-86
2024/02/20 08:52:35;;;;;;;;;;;;;;;;;;5048634;28;19919;-88
2024/02/20 08:55:03;;;;;;;;;;;;;;;;;;5049062;28;20397;-89
2024/02/20 08:57:29;;;;;;;;;;;;;;;;;;5050197;28;19924;-89
2024/02/20 08:59:55;;;;;;;;;;;;;;;;;;5049398;28;19917;-89
2024/02/20 09:02:21;;;;;;;;;;;;;;;;;;5048522;28;19917;-89
2024/02/20 09:04:46;;;;;;;;;;;;;;;;;;5052381;28;19973;-89
2024/02/20 09:07:12;;;;;;;;;;;;;;;;;;5052504;28;19971;-90
2024/02/20 09:09:38;;;;;;;;;;;;;;;;;;5055745;28;19912;-92
2024/02/20 09:12:04;;;;;;;;;;;;;;;;;;5050225;28;20391;-82
2024/02/20 09:14:30;;;;;;;;;;;;;;;;;;5047726;28;19909;-82
2024/02/20 09:16:56;;;;;;;;;;;;;;;;;;5047145;28;19959;-83
2024/02/20 09:19:22;;;;;;;;;;;;;;;;;;5047639;28;19917;-81
2024/02/20 09:21:48;;;;;;;;;;;;;;;;;;5051334;28;19913;-82
2024/02/20 09:24:15;;;;;;;;;;;;;;;;;;5060551;28;19917;-83
2024/02/20 09:26:43;;;;;;;;;;;;;;;;;;5051135;28;20410;-83
2024/02/20 09:29:08;;;;;;;;;;;;;;;;;;5050711;28;19952;-83
2024/02/20 09:31:34;;;;;;;;;;;;;;;;;;5051374;28;20717;-82
2024/02/20 09:34:00;;;;;;;;;;;;;;;;;;5051817;28;20276;-87
2024/02/20 09:36:26;;;;;;;;;;;;;;;;;;5051501;28;20280;-86
2024/02/20 09:38:52;;;;;;;;;;;;;;;;;;5051557;28;19990;-85
2024/02/20 09:41:18;;;;;;;;;;;;;;;;;;5050983;28;20403;-84
2024/02/20 09:43:44;;;;;;;;;;;;;;;;;;5050312;28;19908;-85
2024/02/20 09:46:10;;;;;;;;;;;;;;;;;;5033659;28;20582;-85
2024/02/20 09:48:35;;;;;;;;;;;;;;;;;;5033427;28;19912;-85
2024/02/20 09:51:01;;;;;;;;;;;;;;;;;;5050874;28;20435;-85
2024/02/20 09:53:27;;;;;;;;;;;;;;;;;;5065134;28;20122;-85
2024/02/20 09:55:53;;;;;;;;;;;;;;;;;;5071561;28;19920;-86
2024/02/20 09:58:19;;;;;;;;;;;;;;;;;;5070934;28;19909;-85
2024/02/20 10:00:45;;;;;;;;;;;;;;;;;;5071163;28;19909;-84
2024/02/20 10:03:11;;;;;;;;;;;;;;;;;;5067306;28;19913;-84
2024/02/20 10:05:36;;;;;;;;;;;;;;;;;;5050688;28;19936;-84
2024/02/20 10:08:02;;;;;;;;;;;;;;;;;;5050699;28;19909;-85
2024/02/20 10:10:28;;;;;;;;;;;;;;;;;;5050876;28;19913;-84
2024/02/20 10:12:54;;;;;;;;;;;;;;;;;;5050602;28;19909;-86
2024/02/20 10:15:20;;;;;;;;;;;;;;;;;;5050353;28;20264;-84
2024/02/20 10:17:46;;;;;;;;;;;;;;;;;;5050897;28;19915;-85
2024/02/20 10:20:12;;;;;;;;;;;;;;;;;;5049833;28;19908;-84
2024/02/20 10:22:38;;;;;;;;;;;;;;;;;;5050306;28;19998;-85
2024/02/20 10:25:04;;;;;;;;;;;;;;;;;;5050597;28;20007;-84
2024/02/20 10:27:30;;;;;;;;;;;;;;;;;;5050172;28;19928;-85
2024/02/20 10:29:55;;;;;;;;;;;;;;;;;;5049519;28;19909;-84
2024/02/20 10:32:22;;;;;;;;;;;;;;;;;;5050889;28;20043;-85
2024/02/20 10:34:48;;;;;;;;;;;;;;;;;;5050048;28;20394;-85
2024/02/20 10:37:13;;;;;;;;;;;;;;;;;;5049999;28;19909;-85
2024/02/20 10:39:39;;;;;;;;;;;;;;;;;;5050401;28;20283;-85
2024/02/20 10:42:05;;;;;;;;;;;;;;;;;;5050140;28;20295;-85
2024/02/20 10:44:31;;;;;;;;;;;;;;;;;;5050102;28;19970;-85
2024/02/20 10:46:57;;;;;;;;;;;;;;;;;;5050190;28;19909;-85
2024/02/20 10:49:23;;;;;;;;;;;;;;;;;;5049994;28;19933;-84
2024/02/20 10:51:49;;;;;;;;;;;;;;;;;;5049958;28;19913;-85
2024/02/20 10:54:14;;;;;;;;;;;;;;;;;;5049591;28;20580;-85
2024/02/20 10:56:40;;;;;;;;;;;;;;;;;;5050140;28;20144;-84
2024/02/20 10:59:06;;;;;;;;;;;;;;;;;;5050001;28;19955;-84
2024/02/20 11:01:32;;;;;;;;;;;;;;;;;;5049872;28;19948;-85
2024/02/20 11:03:58;;;;;;;;;;;;;;;;;;5049482;28;19959;-84
2024/02/20 11:06:24;;;;;;;;;;;;;;;;;;5049915;28;20000;-85
2024/02/20 11:08:50;;;;;;;;;;;;;;;;;;5049686;28;19914;-84
2024/02/20 11:11:15;;;;;;;;;;;;;;;;;;5049377;28;20330;-85
2024/02/20 11:13:41;;;;;;;;;;;;;;;;;;5049360;28;20330;-85
2024/02/20 11:16:07;;;;;;;;;;;;;;;;;;5049091;28;19983;-84
2024/02/20 11:18:33;;;;;;;;;;;;;;;;;;5049713;28;19909;-85
2024/02/20 11:20:59;;;;;;;;;;;;;;;;;;5049130;28;19909;-86
2024/02/20 11:23:25;;;;;;;;;;;;;;;;;;5056981;28;19908;-83
2024/02/20 11:25:51;;;;;;;;;;;;;;;;;;5069238;28;19923;-84
2024/02/20 11:28:17;;;;;;;;;;;;;;;;;;5064569;28;19925;-84
2024/02/20 11:30:45;;;;;;;;;;;;;;;;;;5048953;28;19990;-84
2024/02/20 11:33:11;;;;;;;;;;;;;;;;;;5049196;28;19917;-85
2024/02/20 11:35:36;;;;;;;;;;;;;;;;;;5048267;28;19916;-83
2024/02/20 11:38:06;;;;;;;;;;;;;;;;;;5048175;28;21255;-84
2024/02/20 11:40:32;;;;;;;;;;;;;;;;;;5048842;28;19970;-84
2024/02/20 11:42:58;;;;;;;;;;;;;;;;;;5030301;28;19909;-83
2024/02/20 11:45:25;;;;;;;;;;;;;;;;;;5048762;28;20275;-84
2024/02/20 11:47:51;;;;;;;;;;;;;;;;;;5049041;28;19970;-84
2024/02/20 11:50:17;;;;;;;;;;;;;;;;;;5048403;28;19917;-82
2024/02/20 11:52:43;;;;;;;;;;;;;;;;;;5049082;28;19912;-83
2024/02/20 11:55:12;;;;;;;;;;;;;;;;;;5048448;28;20016;-83
2024/02/20 11:57:37;;;;;;;;;;;;;;;;;;5048775;28;19994;-83
2024/02/20 12:00:03;;;;;;;;;;;;;;;;;;5048844;28;20367;-83
2024/02/20 12:02:29;;;;;;;;;;;;;;;;;;5048250;28;20411;-83
2024/02/20 12:04:55;;;;;;;;;;;;;;;;;;5048214;28;20291;-83
2024/02/20 12:07:21;;;;;;;;;;;;;;;;;;5048922;28;20003;-83
2024/02/20 12:09:47;;;;;;;;;;;;;;;;;;5048415;28;19917;-83
2024/02/20 12:12:12;;;;;;;;;;;;;;;;;;5048196;28;19913;-83
2024/02/20 12:14:38;;;;;;;;;;;;;;;;;;5048478;28;19962;-83
2024/02/20 12:17:05;;;;;;;;;;;;;;;;;;5042029;28;20055;-83
2024/02/20 12:19:33;;;;;;;;;;;;;;;;;;5057864;28;19913;-83
2024/02/20 12:21:58;;;;;;;;;;;;;;;;;;5047786;28;20280;-82
2024/02/20 12:24:24;;;;;;;;;;;;;;;;;;5048694;28;19916;-83
2024/02/20 12:26:51;;;;;;;;;;;;;;;;;;5047931;28;20277;-82
2024/02/20 12:29:16;;;;;;;;;;;;;;;;;;5048100;28;19959;-82
2024/02/20 12:31:42;;;;;;;;;;;;;;;;;;5068621;28;20005;-83
2024/02/20 12:34:08;;;;;;;;;;;;;;;;;;5061770;28;19909;-84
2024/02/20 12:36:36;;;;;;;;;;;;;;;;;;5048550;28;19921;-84
2024/02/20 12:39:02;;;;;;;;;;;;;;;;;;5048309;28;19913;-84
2024/02/20 12:41:29;;;;;;;;;;;;;;;;;;5049025;28;19913;-83
2024/02/20 12:43:55;;;;;;;;;;;;;;;;;;5048020;28;20264;-83
2024/02/20 12:46:20;;;;;;;;;;;;;;;;;;5048548;28;20031;-84
2024/02/20 12:48:46;;;;;;;;;;;;;;;;;;5048340;28;19909;-84
2024/02/20 12:51:12;;;;;;;;;;;;;;;;;;5048183;28;19912;-84
2024/02/20 12:53:38;;;;;;;;;;;;;;;;;;5048940;28;19915;-83
2024/02/20 12:56:04;;;;;;;;;;;;;;;;;;5052758;28;19967;-82
2024/02/20 12:58:30;;;;;;;;;;;;;;;;;;5052300;28;19909;-83
2024/02/20 13:00:55;;;;;;;;;;;;;;;;;;5051778;28;19995;-83
2024/02/20 13:03:21;;;;;;;;;;;;;;;;;;5052010;28;19916;-83
2024/02/20 13:05:48;;;;;;;;;;;;;;;;;;5052335;28;19916;-84
2024/02/20 13:08:14;;;;;;;;;;;;;;;;;;5051652;28;19909;-83
2024/02/20 13:10:41;;;;;;;;;;;;;;;;;;5051823;28;20021;-83
2024/02/20 13:13:07;;;;;;;;;;;;;;;;;;5051525;28;19928;-84
2024/02/20 13:15:33;;;;;;;;;;;;;;;;;;5042089;28;19916;-84
2024/02/20 13:17:59;;;;;;;;;;;;;;;;;;5054171;28;20763;-83
2024/02/20 13:20:24;;;;;;;;;;;;;;;;;;5061443;28;19916;-83
2024/02/20 13:22:50;;;;;;;;;;;;;;;;;;5033382;28;19924;-82
2024/02/20 13:25:16;;;;;;;;;;;;;;;;;;5051488;28;20007;-83
2024/02/20 13:27:42;;;;;;;;;;;;;;;;;;5051279;28;19921;-83
2024/02/20 13:30:08;;;;;;;;;;;;;;;;;;5051019;28;20387;-83
2024/02/20 13:32:34;;;;;;;;;;;;;;;;;;5033435;28;20345;-82
2024/02/20 13:34:59;;;;;;;;;;;;;;;;;;5050747;28;19909;-84
2024/02/20 13:37:26;;;;;;;;;;;;;;;;;;5051228;28;20003;-83
2024/02/20 13:39:52;;;;;;;;;;;;;;;;;;5051732;28;19992;-83
2024/02/20 13:42:19;;;;;;;;;;;;;;;;;;5067425;28;20004;-83
2024/02/20 13:44:45;;;;;;;;;;;;;;;;;;5063020;28;19916;-82
2024/02/20 13:47:11;;;;;;;;;;;;;;;;;;5050675;28;20264;-82
2024/02/20 13:49:36;;;;;;;;;;;;;;;;;;5051519;28;19917;-87
2024/02/20 13:52:02;;;;;;;;;;;;;;;;;;5065891;28;19918;-91
2024/02/20 13:54:29;;;;;;;;;;;;;;;;;;5052266;28;20367;-88
2024/02/20 13:56:55;;;;;;;;;;;;;;;;;;5051336;28;20054;-85
2024/02/20 13:59:21;;;;;;;;;;;;;;;;;;5040740;28;20465;-85
2024/02/20 14:01:47;;;;;;;;;;;;;;;;;;5053807;28;19916;-84
2024/02/20 14:04:13;;;;;;;;;;;;;;;;;;5052027;28;19927;-85
2024/02/20 14:06:40;;;;;;;;;;;;;;;;;;5049549;28;20007;-85
2024/02/20 14:09:06;;;;;;;;;;;;;;;;;;5046165;28;19955;-84
2024/02/20 14:11:32;;;;;;;;;;;;;;;;;;5063995;28;19944;-85
2024/02/20 14:13:57;;;;;;;;;;;;;;;;;;5043616;28;19913;-85
2024/02/20 14:16:23;;;;;;;;;;;;;;;;;;5027572;28;20439;-85
2024/02/20 14:18:49;;;;;;;;;;;;;;;;;;5045584;28;19936;-85
2024/02/20 14:21:15;;;;;;;;;;;;;;;;;;5050024;28;19927;-84
2024/02/20 14:23:42;;;;;;;;;;;;;;;;;;5051532;28;19917;-85
2024/02/20 14:26:08;;;;;;;;;;;;;;;;;;5053145;28;20691;-85
2024/02/20 14:28:33;;;;;;;;;;;;;;;;;;5049743;28;20058;-84
2024/02/20 14:30:59;;;;;;;;;;;;;;;;;;5050673;28;19921;-85
2024/02/20 14:33:25;;;;;;;;;;;;;;;;;;5051864;28;20398;-85
2024/02/20 14:35:51;;;;;;;;;;;;;;;;;;5049697;28;20393;-85
2024/02/20 14:38:17;;;;;;;;;;;;;;;;;;5046459;28;20313;-85
2024/02/20 14:40:44;;;;;;;;;;;;;;;;;;5054457;28;19909;-84
2024/02/20 14:43:10;;;;;;;;;;;;;;;;;;5052248;28;19948;-85
2024/02/20 14:45:35;;;;;;;;;;;;;;;;;;5050101;28;20394;-84
2024/02/20 14:48:06;;;;;;;;;;;;;;;;;;5055316;28;20363;-84
2024/02/20 14:50:32;;;;;;;;;;;;;;;;;;5035532;28;19909;-84
2024/02/20 14:52:58;;;;;;;;;;;;;;;;;;5057020;28;20379;-82
2024/02/20 14:55:23;;;;;;;;;;;;;;;;;;5053207;28;19920;-84
2024/02/20 14:57:49;;;;;;;;;;;;;;;;;;5048889;28;19943;-82
2024/02/20 15:00:15;;;;;;;;;;;;;;;;;;5050166;28;19916;-83
2024/02/20 15:02:41;;;;;;;;;;;;;;;;;;5046505;28;19917;-83
2024/02/20 15:05:10;;;;;;;;;;;;;;;;;;5045220;28;19939;-84
2024/02/20 15:07:38;;;;;;;;;;;;;;;;;;5049065;28;19967;-83
2024/02/20 15:10:05;;;;;;;;;;;;;;;;;;5049198;28;19909;-84
2024/02/20 15:12:32;;;;;;;;;;;;;;;;;;5049472;28;19975;-84
2024/02/20 15:14:58;;;;;;;;;;;;;;;;;;5048312;28;19913;-83
2024/02/20 15:17:24;;;;;;;;;;;;;;;;;;5048889;28;19915;-83
2024/02/20 15:19:50;;;;;;;;;;;;;;;;;;5049096;28;19921;-84
2024/02/20 15:22:16;;;;;;;;;;;;;;;;;;5048476;28;20375;-83
2024/02/20 15:24:43;;;;;;;;;;;;;;;;;;5067402;28;19913;-82
2024/02/20 15:27:09;;;;;;;;;;;;;;;;;;5054489;28;19928;-82
2024/02/20 15:29:35;;;;;;;;;;;;;;;;;;5048831;28;19917;-83
2024/02/20 15:32:01;;;;;;;;;;;;;;;;;;5048523;28;20744;-90
2024/02/20 15:34:27;;;;;;;;;;;;;;;;;;5050179;28;19923;-86
2024/02/20 15:36:53;;;;;;;;;;;;;;;;;;5050177;28;19917;-88
2024/02/20 15:39:18;;;;;;;;;;;;;;;;;;5048261;28;19916;-83
2024/02/20 15:41:44;;;;;;;;;;;;;;;;;;5047551;28;20255;-85
2024/02/20 15:44:10;;;;;;;;;;;;;;;;;;5047775;28;19963;-86
2024/02/20 15:46:36;;;;;;;;;;;;;;;;;;5047374;28;19932;-83
2024/02/20 15:49:02;;;;;;;;;;;;;;;;;;5047421;28;19948;-86
2024/02/20 15:51:32;;;;;;;;;;;;;;;;;;5048079;28;19921;-86
2024/02/20 15:54:07;;;;;;;;;;;;;;;;;;5046175;28;19923;-87
2024/02/20 15:56:35;;;;;;;;;;;;;;;;;;5042789;28;19925;-85
2024/02/20 15:59:02;;;;;;;;;;;;;;;;;;5048629;28;20019;-86
2024/02/20 16:01:28;;;;;;;;;;;;;;;;;;5060341;28;19938;-87
2024/02/20 16:03:54;;;;;;;;;;;;;;;;;;5050229;28;20594;-85
2024/02/20 16:06:21;;;;;;;;;;;;;;;;;;5048331;28;20276;-86
2024/02/20 16:08:47;;;;;;;;;;;;;;;;;;5046853;28;19920;-85
2024/02/20 16:11:12;;;;;;;;;;;;;;;;;;5048251;28;19913;-85
2024/02/20 16:13:38;;;;;;;;;;;;;;;;;;5053416;28;19935;-84
2024/02/20 16:16:05;;;;;;;;;;;;;;;;;;5044840;28;19978;-84
2024/02/20 16:18:35;;;;;;;;;;;;;;;;;;5046439;28;19917;-84
2024/02/20 16:21:06;;;;;;;;;;;;;;;;;;5043973;28;19924;-85
2024/02/20 16:23:33;;;;;;;;;;;;;;;;;;5047545;28;19917;-86
2024/02/20 16:26:00;;;;;;;;;;;;;;;;;;5046806;28;19924;-85
2024/02/20 16:28:26;;;;;;;;;;;;;;;;;;5050674;28;19925;-83
2024/02/20 16:30:51;;;;;;;;;;;;;;;;;;5050467;28;20240;-85
2024/02/20 16:33:17;;;;;;;;;;;;;;;;;;5051841;28;19920;-84
2024/02/20 16:35:43;;;;;;;;;;;;;;;;;;5041625;28;20065;-84
2024/02/20 16:38:09;;;;;;;;;;;;;;;;;;5041757;28;19917;-84